Kununurra, Australia
Current Conditions -  °F | °C
As of 5:00 AM on Friday 28 Nov 2014 (Local Time) from YPKU Reporting Station
Clear Clear  
Wind Chill: 79°   Ceiling: Unl
Heat Index: 82°   Visibility: 6mi
Dew Point: 72°   Wind: 7mph
Humidity: 78%   Direction: 100°E
Pressure: 29.8"   Gusts: NA
Location:  15.77°S, 128.74°E
Report Text: YPKU 272100Z AUTO 10006KT 9999 // NCD 26/22 Q1009
Loading
Personal Weather Stations






























Interactive Weather Map New forecast layout! Learn more

10-Day Weather Forecast

Advertisements
Track Severe Weather on mobile